createdAt,value
2023-03-22T00:02:46.813Z,6.21
2023-03-22T00:06:25.719Z,6.19
2023-03-22T00:10:02.054Z,6.17
2023-03-22T00:13:42.531Z,6.18
2023-03-22T00:17:17.761Z,6.20
2023-03-22T00:20:59.743Z,6.21
2023-03-22T00:24:33.110Z,6.23
2023-03-22T00:28:11.249Z,6.24
2023-03-22T00:31:49.362Z,6.25
2023-03-22T00:35:26.042Z,6.27
2023-03-22T00:39:03.872Z,6.29
2023-03-22T00:42:42.095Z,6.32
2023-03-22T00:46:21.306Z,6.35
2023-03-22T00:49:57.388Z,6.36
2023-03-22T00:53:35.414Z,6.37
2023-03-22T00:57:15.079Z,6.36
2023-03-22T01:00:49.420Z,6.35
2023-03-22T01:04:27.279Z,6.35
2023-03-22T01:08:08.734Z,6.34
2023-03-22T01:11:43.927Z,6.33
2023-03-22T01:18:57.949Z,6.33
2023-03-22T01:22:35.853Z,6.33
2023-03-22T01:26:13.047Z,6.34
2023-03-22T01:29:51.042Z,6.35
2023-03-22T01:33:28.538Z,6.37
2023-03-22T01:37:06.331Z,6.42
2023-03-22T01:40:44.583Z,6.46
2023-03-22T01:44:23.312Z,6.51
2023-03-22T01:48:03.138Z,6.57
2023-03-22T01:51:36.931Z,6.60
2023-03-22T01:55:14.632Z,6.62
2023-03-22T01:58:54.653Z,6.61
2023-03-22T02:02:31.145Z,6.59
2023-03-22T02:06:08.286Z,6.57
2023-03-22T02:09:46.793Z,6.56
2023-03-22T02:13:39.112Z,6.56
2023-03-22T02:17:12.950Z,6.55
2023-03-22T02:24:43.942Z,6.51
2023-03-22T02:28:31.162Z,6.50
2023-03-22T02:31:48.911Z,6.50
2023-03-22T02:35:31.510Z,6.48
2023-03-22T02:39:05.388Z,6.44
2023-03-22T02:42:30.843Z,6.40
2023-03-22T02:46:23.634Z,6.35
2023-03-22T02:50:14.652Z,6.31
2023-03-22T02:53:20.973Z,6.29
2023-03-22T02:57:23.078Z,6.29
2023-03-22T03:00:36.794Z,6.34
2023-03-22T03:04:16.918Z,6.42
2023-03-22T03:07:57.631Z,6.49
2023-03-22T03:11:26.037Z,6.55
2023-03-22T03:15:13.988Z,6.60
2023-03-22T03:18:54.185Z,6.61
2023-03-22T03:22:56.965Z,6.61
2023-03-22T03:26:03.136Z,6.59
2023-03-22T03:29:41.511Z,6.58
2023-03-22T03:33:17.781Z,6.57
2023-03-22T03:36:58.740Z,6.58
2023-03-22T03:40:54.135Z,6.60
2023-03-22T03:44:07.341Z,6.62
2023-03-22T03:47:46.956Z,6.64
2023-03-22T03:51:21.376Z,6.64
2023-03-22T03:54:58.857Z,6.65
2023-03-22T03:58:37.368Z,6.64
2023-03-22T04:02:14.156Z,6.62
2023-03-22T04:05:51.962Z,6.59
2023-03-22T04:09:35.446Z,6.56
2023-03-22T04:13:07.473Z,6.55
2023-03-22T04:16:47.406Z,6.55
2023-03-22T04:20:22.785Z,6.57
2023-03-22T04:24:00.630Z,6.59
2023-03-22T04:27:42.347Z,6.62
2023-03-22T04:31:16.039Z,6.63
2023-03-22T04:34:53.556Z,6.69
2023-03-22T04:38:31.026Z,6.79
2023-03-22T04:42:08.881Z,6.89
2023-03-22T04:45:46.385Z,6.98
2023-03-22T04:49:24.180Z,7.04
2023-03-22T04:53:26.605Z,7.07
2023-03-22T04:56:39.605Z,7.08
2023-03-22T05:00:18.672Z,7.09
2023-03-22T05:03:55.073Z,7.10
2023-03-22T05:07:32.553Z,7.09
2023-03-22T05:11:13.910Z,7.08
2023-03-22T05:14:47.517Z,7.08
2023-03-22T05:18:26.468Z,7.10
2023-03-22T05:22:03.044Z,7.12
2023-03-22T05:25:45.353Z,7.13
2023-03-22T05:29:18.315Z,7.15
2023-03-22T05:33:00.644Z,7.15
2023-03-22T05:36:36.589Z,7.16
2023-03-22T05:40:12.717Z,7.16
2023-03-22T05:43:51.504Z,7.16
2023-03-22T05:47:26.878Z,7.16
2023-03-22T05:51:09.411Z,7.15
2023-03-22T05:54:42.182Z,7.14
2023-03-22T05:58:20.205Z,7.12
2023-03-22T06:01:57.330Z,7.12
2023-03-22T06:05:54.712Z,7.12
2023-03-22T06:09:17.535Z,7.12
2023-03-22T06:12:50.795Z,7.12
2023-03-22T06:16:28.410Z,7.13
2023-03-22T06:20:11.934Z,7.14
2023-03-22T06:23:44.158Z,7.14
2023-03-22T06:27:22.206Z,7.15
2023-03-22T06:30:58.706Z,7.16
2023-03-22T06:34:36.978Z,7.17
2023-03-22T06:38:15.133Z,7.17
2023-03-22T06:41:52.107Z,7.18
2023-03-22T06:45:33.513Z,7.19
2023-03-22T06:49:08.107Z,7.20
2023-03-22T06:52:44.931Z,7.21
2023-03-22T06:56:22.830Z,7.24
2023-03-22T07:00:00.374Z,7.29
2023-03-22T07:03:38.170Z,7.35
2023-03-22T07:07:16.036Z,7.44
2023-03-22T07:10:53.376Z,7.56
2023-03-22T07:14:31.695Z,7.73
2023-03-22T07:18:08.787Z,8.07
2023-03-22T07:21:46.420Z,8.42
2023-03-22T07:25:24.399Z,8.59
2023-03-22T07:29:02.151Z,8.68
2023-03-22T07:32:42.241Z,8.73
2023-03-22T07:36:17.237Z,8.76
2023-03-22T07:39:54.672Z,8.76
2023-03-22T07:43:37.134Z,8.76
2023-03-22T07:47:10.321Z,8.75
2023-03-22T07:50:48.270Z,8.75
2023-03-22T07:54:33.288Z,8.76
2023-03-22T07:58:04.011Z,8.77
2023-03-22T08:01:40.934Z,8.74
2023-03-22T08:05:18.978Z,8.75
2023-03-22T08:08:56.620Z,8.77
2023-03-22T08:12:35.577Z,8.78
2023-03-22T08:16:11.684Z,8.81
2023-03-22T08:19:50.257Z,8.79
2023-03-22T08:23:40.530Z,8.71
2023-03-22T08:27:08.133Z,8.65
2023-03-22T08:30:47.774Z,8.65
2023-03-22T08:34:23.413Z,8.71
2023-03-22T08:38:01.480Z,8.87
2023-03-22T08:41:39.635Z,8.98
2023-03-22T08:45:17.294Z,9.01
2023-03-22T08:48:54.942Z,8.97
2023-03-22T08:52:32.215Z,8.91
2023-03-22T08:56:09.751Z,8.87
2023-03-22T08:59:47.050Z,8.87
2023-03-22T09:03:26.613Z,8.88
2023-03-22T09:07:02.984Z,8.91
2023-03-22T09:10:40.567Z,8.96
2023-03-22T09:14:17.644Z,9.00
2023-03-22T09:17:56.604Z,9.05
2023-03-22T09:21:33.466Z,9.10
2023-03-22T09:25:13.018Z,9.15
2023-03-22T09:28:48.888Z,9.18
2023-03-22T09:32:27.017Z,9.21
2023-03-22T09:36:06.009Z,9.24
2023-03-22T09:39:42.040Z,9.18
2023-03-22T09:43:20.943Z,9.09
2023-03-22T09:47:00.131Z,8.98
2023-03-22T09:50:47.830Z,8.87
2023-03-22T09:54:31.472Z,8.79
2023-03-22T09:58:07.844Z,8.67
2023-03-22T10:01:35.500Z,8.59
2023-03-22T10:05:28.557Z,8.58
2023-03-22T10:09:11.170Z,8.58
2023-03-22T10:12:53.538Z,8.59
2023-03-22T10:16:02.405Z,8.90
2023-03-22T10:19:58.758Z,9.31
2023-03-22T10:23:18.873Z,9.61
2023-03-22T10:34:38.390Z,10.17
2023-03-22T10:38:22.876Z,10.26
2023-03-22T10:41:57.999Z,10.40
2023-03-22T10:45:35.278Z,10.59
2023-03-22T10:49:18.830Z,10.83
2023-03-22T10:53:04.776Z,11.11
2023-03-22T10:56:25.242Z,11.39
2023-03-22T11:00:10.048Z,11.74
2023-03-22T11:03:43.037Z,12.16
2023-03-22T11:07:47.584Z,12.49
2023-03-22T11:10:59.389Z,12.65
2023-03-22T11:14:36.976Z,12.68
2023-03-22T11:18:16.121Z,12.75
2023-03-22T11:21:48.364Z,12.87
2023-03-22T11:25:34.817Z,13.01
2023-03-22T11:29:16.701Z,13.19
2023-03-22T11:32:41.364Z,13.36
2023-03-22T11:36:26.544Z,13.41
2023-03-22T11:40:02.227Z,13.17
2023-03-22T11:43:42.456Z,12.90
2023-03-22T11:47:14.060Z,12.80
2023-03-22T11:50:53.900Z,12.71
2023-03-22T11:54:35.781Z,12.55
2023-03-22T11:58:06.718Z,12.51
2023-03-22T12:02:13.428Z,12.48
2023-03-22T12:05:30.607Z,12.56
2023-03-22T12:09:35.917Z,12.47
2023-03-22T12:12:44.645Z,12.42
2023-03-22T12:16:23.028Z,12.41
2023-03-22T12:20:06.300Z,12.48
2023-03-22T12:23:32.924Z,12.58
2023-03-22T12:27:17.699Z,12.78
2023-03-22T12:30:56.428Z,12.97
2023-03-22T12:34:33.894Z,12.97
2023-03-22T12:38:11.326Z,12.87
2023-03-22T12:41:43.670Z,12.80
2023-03-22T12:45:25.013Z,12.80
2023-03-22T12:49:15.659Z,12.78
2023-03-22T12:52:56.086Z,12.71
2023-03-22T12:56:40.045Z,12.58
2023-03-22T12:59:51.807Z,12.43
2023-03-22T13:03:51.559Z,12.20
2023-03-22T13:07:29.253Z,12.01
2023-03-22T13:11:03.388Z,11.80
2023-03-22T13:14:51.521Z,11.62
2023-03-22T13:17:56.823Z,11.49
2023-03-22T13:21:33.733Z,11.35
2023-03-22T13:25:12.640Z,11.22
2023-03-22T13:28:58.516Z,11.15
2023-03-22T13:32:32.894Z,11.08
2023-03-22T13:36:25.469Z,11.07
2023-03-22T13:39:41.247Z,11.08
2023-03-22T13:43:29.736Z,11.08
2023-03-22T13:47:01.836Z,11.03
2023-03-22T13:50:35.148Z,10.97
2023-03-22T13:54:16.470Z,10.88
2023-03-22T13:57:59.159Z,10.82
2023-03-22T14:01:35.213Z,10.81
2023-03-22T14:05:18.756Z,10.80
2023-03-22T14:08:47.331Z,10.79
2023-03-22T14:12:32.482Z,10.79
2023-03-22T14:16:08.669Z,10.78
2023-03-22T14:19:37.783Z,10.72
